Time;durP1;ratioP1;P1;durP2;ratioP2;P2;SDS_P1;SDS_P2;PMS_P1;PMS_P2;Temp;Humidity;BMP_temperature;BMP_pressure;BME280_temperature;BME280_humidity;BME280_pressure;Samples;Min_cycle;Max_cycle;Signal;HPM_P1;HPM_P2
2022/03/18 00:02:24;;;;;;;;;;;7.70;99.90;;;;;;4983450;28;19914;-88
2022/03/18 00:04:50;;;;;;;;;;;7.70;99.90;;;;;;4984673;28;19934;-88
2022/03/18 00:07:16;;;;;;;;;;;7.70;99.90;;;;;;4982872;28;19984;-88
2022/03/18 00:09:42;;;;;;;;;;;7.70;99.90;;;;;;4984276;28;20114;-88
2022/03/18 00:12:10;;;;;;;;;;;7.70;99.90;;;;;;4984578;28;19907;-88
2022/03/18 00:14:39;;;;;;;;;;;7.70;99.90;;;;;;4983824;28;19906;-88
2022/03/18 00:17:04;;;;;;;;;;;7.70;99.90;;;;;;4984442;28;20000;-88
2022/03/18 00:19:31;;;;;;;;;;;7.60;99.90;;;;;;4984432;28;19906;-88
2022/03/18 00:22:01;;;;;;;;;;;7.70;99.90;;;;;;4984630;28;19906;-88
2022/03/18 00:24:32;;;;;;;;;;;7.70;99.90;;;;;;4981242;28;19937;-88
2022/03/18 00:27:01;;;;;;;;;;;7.60;99.90;;;;;;4981703;28;19918;-88
2022/03/18 00:29:27;;;;;;;;;;;7.70;99.90;;;;;;4981092;28;20063;-87
2022/03/18 00:31:53;;;;;;;;;;;7.60;99.90;;;;;;4976727;28;20009;-88
2022/03/18 00:34:18;;;;;;;;;;;7.60;99.90;;;;;;4978824;28;19906;-88
2022/03/18 00:36:44;;;;;;;;;;;7.60;99.90;;;;;;4966341;28;19953;-88
2022/03/18 00:39:10;;;;;;;;;;;7.70;99.90;;;;;;4983944;28;20332;-88
2022/03/18 00:41:35;;;;;;;;;;;7.60;99.90;;;;;;4983873;28;19906;-88
2022/03/18 00:44:01;;;;;;;;;;;7.60;99.90;;;;;;4983683;28;19906;-88
2022/03/18 00:46:27;;;;;;;;;;;7.60;99.90;;;;;;4982932;28;19993;-87
2022/03/18 00:54:21;;;;;;;;;;;7.60;99.90;;;;;;4983686;28;19960;-88
2022/03/18 00:56:47;;;;;;;;;;;7.60;99.90;;;;;;4955465;28;20360;-88
2022/03/18 00:59:12;;;;;;;;;;;7.70;99.90;;;;;;4963734;28;20028;-88
2022/03/18 01:01:38;;;;;;;;;;;7.70;99.90;;;;;;4959593;28;19907;-88
2022/03/18 01:04:04;;;;;;;;;;;7.60;99.90;;;;;;4963294;28;19930;-88
2022/03/18 01:06:30;;;;;;;;;;;7.60;99.90;;;;;;4979515;28;19915;-88
2022/03/18 01:08:56;;;;;;;;;;;7.70;99.90;;;;;;4982711;28;20080;-88
2022/03/18 01:11:22;;;;;;;;;;;7.70;99.90;;;;;;4982966;28;20194;-88
2022/03/18 01:13:47;;;;;;;;;;;7.60;99.90;;;;;;4983539;28;19918;-88
2022/03/18 01:16:13;;;;;;;;;;;7.60;99.90;;;;;;4981589;28;20283;-87
2022/03/18 01:18:39;;;;;;;;;;;7.60;99.90;;;;;;4966114;28;20078;-88
2022/03/18 01:21:05;;;;;;;;;;;7.50;99.90;;;;;;4981945;28;19914;-88
2022/03/18 01:23:31;;;;;;;;;;;7.40;99.90;;;;;;4983700;28;19948;-89
2022/03/18 01:25:56;;;;;;;;;;;7.40;99.90;;;;;;4981174;28;19910;-88
2022/03/18 01:28:22;;;;;;;;;;;7.40;99.90;;;;;;4964178;28;20054;-88
2022/03/18 01:30:48;;;;;;;;;;;7.40;99.90;;;;;;4981565;28;19922;-88
2022/03/18 01:33:13;;;;;;;;;;;7.30;99.90;;;;;;4982893;28;19945;-88
2022/03/18 01:35:39;;;;;;;;;;;7.30;99.90;;;;;;4982131;28;19906;-87
2022/03/18 01:38:04;;;;;;;;;;;7.20;99.90;;;;;;4977286;28;19909;-87
2022/03/18 01:40:31;;;;;;;;;;;7.20;99.90;;;;;;4965398;28;20188;-88
2022/03/18 01:42:56;;;;;;;;;;;7.20;99.90;;;;;;4979687;28;19906;-87
2022/03/18 01:45:23;;;;;;;;;;;7.20;99.90;;;;;;4961890;28;20050;-88
2022/03/18 01:47:48;;;;;;;;;;;7.20;99.90;;;;;;4959807;28;20203;-88
2022/03/18 01:50:14;;;;;;;;;;;7.30;99.90;;;;;;4964691;28;19946;-88
2022/03/18 01:52:40;;;;;;;;;;;7.20;99.90;;;;;;4979189;28;19914;-87
2022/03/18 01:55:06;;;;;;;;;;;7.20;99.90;;;;;;4981501;28;19977;-88
2022/03/18 01:57:32;;;;;;;;;;;7.30;99.90;;;;;;4981574;28;19912;-88
2022/03/18 01:59:58;;;;;;;;;;;7.20;99.90;;;;;;4964767;28;19945;-88
2022/03/18 02:02:24;;;;;;;;;;;7.20;99.90;;;;;;4982290;28;19907;-88
2022/03/18 02:04:49;;;;;;;;;;;7.20;99.90;;;;;;4981082;28;19937;-87
2022/03/18 02:07:15;;;;;;;;;;;7.20;99.90;;;;;;4980328;28;19965;-88
2022/03/18 02:09:41;;;;;;;;;;;7.20;99.90;;;;;;4981125;28;19918;-88
2022/03/18 02:12:07;;;;;;;;;;;7.20;99.90;;;;;;4982297;28;20201;-88
2022/03/18 02:14:34;;;;;;;;;;;7.20;99.90;;;;;;4980783;28;19949;-88
2022/03/18 02:17:01;;;;;;;;;;;7.10;99.90;;;;;;4980380;28;19985;-88
2022/03/18 02:19:27;;;;;;;;;;;7.00;99.90;;;;;;4981142;28;19910;-88
2022/03/18 02:21:54;;;;;;;;;;;6.90;99.90;;;;;;4981801;28;19989;-87
2022/03/18 02:24:20;;;;;;;;;;;6.90;99.90;;;;;;4981269;28;19942;-88
2022/03/18 02:26:49;;;;;;;;;;;7.00;99.90;;;;;;4979610;28;20158;-88
2022/03/18 02:29:17;;;;;;;;;;;7.00;99.90;;;;;;4981866;28;19953;-88
2022/03/18 02:31:43;;;;;;;;;;;6.90;99.90;;;;;;4980471;28;19921;-88
2022/03/18 02:34:08;;;;;;;;;;;6.90;99.90;;;;;;4982623;28;19906;-88
2022/03/18 02:36:34;;;;;;;;;;;6.90;99.90;;;;;;4981283;28;19913;-88
2022/03/18 02:38:59;;;;;;;;;;;6.90;99.90;;;;;;4980697;28;19906;-88
2022/03/18 02:41:25;;;;;;;;;;;6.90;99.90;;;;;;4980752;28;20102;-88
2022/03/18 02:46:26;;;;;;;;;;;6.80;99.90;;;;;;5414011;23;19927;-88
2022/03/18 02:48:51;;;;;;;;;;;6.80;99.90;;;;;;4933777;29;19911;-88
2022/03/18 02:51:18;;;;;;;;;;;6.80;99.90;;;;;;4933295;29;20441;-88
2022/03/18 02:53:43;;;;;;;;;;;6.80;99.90;;;;;;4931831;29;19910;-88
2022/03/18 02:56:09;;;;;;;;;;;6.80;99.90;;;;;;4947853;29;19943;-88
2022/03/18 02:58:35;;;;;;;;;;;6.80;99.90;;;;;;4933002;29;20177;-87
2022/03/18 03:01:04;;;;;;;;;;;6.80;99.90;;;;;;4933084;29;19918;-88
2022/03/18 03:03:29;;;;;;;;;;;6.90;99.90;;;;;;4947522;29;20391;-88
2022/03/18 03:08:39;;;;;;;;;;;6.80;99.90;;;;;;4933349;29;20290;-88
2022/03/18 03:11:05;;;;;;;;;;;6.90;99.90;;;;;;4947736;29;19911;-88
2022/03/18 03:13:32;;;;;;;;;;;6.80;99.90;;;;;;4932136;29;19947;-88
2022/03/18 03:15:58;;;;;;;;;;;6.70;99.90;;;;;;4936866;29;19918;-88
2022/03/18 03:18:24;;;;;;;;;;;6.70;99.90;;;;;;4936656;29;19978;-88
2022/03/18 03:20:49;;;;;;;;;;;6.70;99.90;;;;;;4936519;29;20418;-88
2022/03/18 03:23:16;;;;;;;;;;;6.70;99.90;;;;;;4936469;29;19940;-88
2022/03/18 03:25:41;;;;;;;;;;;6.70;99.90;;;;;;4936457;29;19961;-88
2022/03/18 03:28:07;;;;;;;;;;;6.70;99.90;;;;;;4936431;29;19966;-88
2022/03/18 03:30:33;;;;;;;;;;;6.70;99.90;;;;;;4936269;29;19942;-88
2022/03/18 03:32:59;;;;;;;;;;;6.70;99.90;;;;;;4936521;29;19914;-87
2022/03/18 03:35:25;;;;;;;;;;;6.70;99.90;;;;;;4936837;29;19914;-88
2022/03/18 03:37:50;;;;;;;;;;;6.70;99.90;;;;;;4936485;29;19915;-88
2022/03/18 03:40:16;;;;;;;;;;;6.70;99.90;;;;;;4935971;29;20009;-88
2022/03/18 03:42:42;;;;;;;;;;;6.60;99.90;;;;;;4950774;29;19933;-88
2022/03/18 03:45:09;;;;;;;;;;;6.60;99.90;;;;;;4935871;29;19918;-88
2022/03/18 03:47:35;;;;;;;;;;;6.60;99.90;;;;;;4934678;29;19919;-88
2022/03/18 03:50:00;;;;;;;;;;;6.60;99.90;;;;;;4936099;29;20007;-88
2022/03/18 03:52:26;;;;;;;;;;;6.60;99.90;;;;;;4936072;29;19926;-88
2022/03/18 03:54:51;;;;;;;;;;;6.70;99.90;;;;;;4934817;29;19911;-88
2022/03/18 03:57:17;;;;;;;;;;;6.60;99.90;;;;;;4935994;29;20031;-88
2022/03/18 03:59:42;;;;;;;;;;;6.60;99.90;;;;;;4935641;29;20279;-88
2022/03/18 04:02:08;;;;;;;;;;;6.50;99.90;;;;;;4934420;29;19919;-88
2022/03/18 04:04:33;;;;;;;;;;;6.60;99.90;;;;;;4935742;29;20006;-88
2022/03/18 04:06:59;;;;;;;;;;;6.60;99.90;;;;;;4935659;29;19923;-88
2022/03/18 04:09:24;;;;;;;;;;;6.60;99.90;;;;;;4935656;29;19914;-88
2022/03/18 04:11:50;;;;;;;;;;;6.50;99.90;;;;;;4935800;29;20435;-88
2022/03/18 04:14:16;;;;;;;;;;;6.60;99.90;;;;;;4935626;29;20413;-89
2022/03/18 04:16:44;;;;;;;;;;;6.50;99.90;;;;;;4935390;29;20327;-88
2022/03/18 04:19:10;;;;;;;;;;;6.50;99.90;;;;;;4935658;29;19911;-88
2022/03/18 04:21:36;;;;;;;;;;;6.50;99.90;;;;;;4935434;29;20442;-88
2022/03/18 04:24:01;;;;;;;;;;;6.50;99.90;;;;;;4935046;29;19933;-88
2022/03/18 04:26:27;;;;;;;;;;;6.40;99.90;;;;;;4932841;29;19995;-88
2022/03/18 04:28:52;;;;;;;;;;;6.40;99.90;;;;;;4950008;29;19969;-87
2022/03/18 04:31:19;;;;;;;;;;;6.40;99.90;;;;;;4935444;29;19911;-88
2022/03/18 04:33:44;;;;;;;;;;;6.40;99.90;;;;;;4950019;29;20010;-88
2022/03/18 04:36:10;;;;;;;;;;;6.40;99.90;;;;;;4950011;29;19997;-88
2022/03/18 04:38:35;;;;;;;;;;;6.30;99.90;;;;;;4949725;29;19917;-88
2022/03/18 04:41:01;;;;;;;;;;;6.40;99.90;;;;;;4934983;29;19911;-88
2022/03/18 04:43:27;;;;;;;;;;;6.30;99.90;;;;;;4935209;29;19911;-88
2022/03/18 04:45:52;;;;;;;;;;;6.30;99.90;;;;;;4949546;29;20403;-88
2022/03/18 04:48:18;;;;;;;;;;;6.30;99.90;;;;;;4949600;29;19922;-88
2022/03/18 04:50:43;;;;;;;;;;;6.30;99.90;;;;;;4935208;29;20001;-88
2022/03/18 04:53:09;;;;;;;;;;;6.30;99.90;;;;;;4934938;29;19911;-88
2022/03/18 04:55:34;;;;;;;;;;;6.30;99.90;;;;;;4935439;29;20074;-88
2022/03/18 04:58:00;;;;;;;;;;;6.30;99.90;;;;;;4933737;29;19911;-88
2022/03/18 05:00:26;;;;;;;;;;;6.40;99.90;;;;;;4934740;29;19910;-88
2022/03/18 05:02:51;;;;;;;;;;;6.30;99.90;;;;;;4949295;29;19911;-88
2022/03/18 05:05:19;;;;;;;;;;;6.30;99.90;;;;;;4949612;29;19934;-88
2022/03/18 05:07:49;;;;;;;;;;;6.30;99.90;;;;;;4933272;29;19929;-88
2022/03/18 05:10:14;;;;;;;;;;;6.30;99.90;;;;;;4949442;29;19915;-88
2022/03/18 05:12:40;;;;;;;;;;;6.30;99.90;;;;;;4933374;29;20339;-88
2022/03/18 05:15:06;;;;;;;;;;;6.30;99.90;;;;;;4949196;29;20260;-88
2022/03/18 05:17:32;;;;;;;;;;;6.40;99.90;;;;;;4933217;29;19911;-88
2022/03/18 05:19:57;;;;;;;;;;;6.30;99.90;;;;;;4932938;29;19938;-88
2022/03/18 05:22:23;;;;;;;;;;;6.20;99.90;;;;;;4933158;29;19918;-88
2022/03/18 05:24:48;;;;;;;;;;;6.20;99.90;;;;;;4934340;29;19915;-88
2022/03/18 05:27:14;;;;;;;;;;;6.10;99.90;;;;;;4934291;29;19926;-89
2022/03/18 05:29:39;;;;;;;;;;;6.20;99.90;;;;;;4932852;29;19910;-89
2022/03/18 05:32:05;;;;;;;;;;;6.10;99.90;;;;;;4933042;29;19911;-88
2022/03/18 05:34:32;;;;;;;;;;;6.00;99.90;;;;;;4934269;29;20371;-88
2022/03/18 05:36:57;;;;;;;;;;;6.00;99.90;;;;;;4948390;28;20549;-88
2022/03/18 05:39:23;;;;;;;;;;;6.00;99.90;;;;;;4933996;29;20165;-89
2022/03/18 05:41:48;;;;;;;;;;;6.00;99.90;;;;;;4932622;29;19911;-88
2022/03/18 05:44:14;;;;;;;;;;;6.00;99.90;;;;;;4933827;29;20403;-88
2022/03/18 05:46:40;;;;;;;;;;;6.00;99.90;;;;;;4932382;29;19923;-88
2022/03/18 05:49:05;;;;;;;;;;;6.00;99.90;;;;;;4934368;29;19911;-88
2022/03/18 05:51:31;;;;;;;;;;;6.00;99.90;;;;;;4934057;29;19958;-88
2022/03/18 05:53:56;;;;;;;;;;;5.90;99.90;;;;;;4933958;29;19911;-88
2022/03/18 05:59:07;;;;;;;;;;;6.00;99.90;;;;;;4933901;29;19917;-88
2022/03/18 06:01:39;;;;;;;;;;;5.90;99.90;;;;;;4932406;29;19911;-88
2022/03/18 06:04:05;;;;;;;;;;;5.90;99.90;;;;;;4933645;29;20342;-88
2022/03/18 06:06:30;;;;;;;;;;;5.90;99.90;;;;;;4933625;29;19918;-88
2022/03/18 06:11:49;;;;;;;;;;;5.90;99.90;;;;;;4933673;29;20429;-88
2022/03/18 06:14:19;;;;;;;;;;;5.90;99.90;;;;;;4933506;29;19915;-88
2022/03/18 06:16:47;;;;;;;;;;;5.90;99.90;;;;;;4948076;29;19922;-89
2022/03/18 06:19:13;;;;;;;;;;;6.00;99.90;;;;;;4933511;29;19937;-88
2022/03/18 06:21:39;;;;;;;;;;;5.90;99.90;;;;;;4933689;29;19934;-88
2022/03/18 06:24:05;;;;;;;;;;;5.90;99.90;;;;;;4932895;29;20323;-87
2022/03/18 06:26:31;;;;;;;;;;;5.90;99.90;;;;;;4933274;29;19923;-88
2022/03/18 06:28:56;;;;;;;;;;;5.90;99.90;;;;;;4928715;29;20160;-88
2022/03/18 06:31:22;;;;;;;;;;;5.90;99.90;;;;;;4944236;29;19915;-88
2022/03/18 06:33:47;;;;;;;;;;;5.90;99.90;;;;;;4947387;29;19911;-88
2022/03/18 06:36:13;;;;;;;;;;;6.00;99.90;;;;;;4947370;29;19911;-88
2022/03/18 06:38:39;;;;;;;;;;;5.90;99.90;;;;;;4931233;29;20397;-88
2022/03/18 06:41:04;;;;;;;;;;;6.00;99.90;;;;;;4932344;29;19919;-89
2022/03/18 06:43:30;;;;;;;;;;;6.00;99.90;;;;;;4947061;29;19910;-88
2022/03/18 06:45:56;;;;;;;;;;;6.00;99.90;;;;;;4932719;29;20313;-89
2022/03/18 06:48:21;;;;;;;;;;;6.10;99.90;;;;;;4941426;29;19978;-89
2022/03/18 06:50:47;;;;;;;;;;;6.00;99.90;;;;;;4962849;29;19918;-88
2022/03/18 06:53:12;;;;;;;;;;;6.10;99.90;;;;;;4948198;29;19911;-88
2022/03/18 06:55:38;;;;;;;;;;;6.10;99.90;;;;;;4962210;29;19911;-88
2022/03/18 06:58:03;;;;;;;;;;;6.10;99.90;;;;;;4960481;29;20935;-88
2022/03/18 07:00:29;;;;;;;;;;;6.20;99.90;;;;;;4947679;29;19907;-88
2022/03/18 07:02:54;;;;;;;;;;;6.20;99.90;;;;;;4946814;29;19910;-88
2022/03/18 07:05:20;;;;;;;;;;;6.20;99.90;;;;;;4956773;29;19962;-88
2022/03/18 07:07:45;;;;;;;;;;;6.30;99.90;;;;;;4935736;29;20363;-88
2022/03/18 07:10:12;;;;;;;;;;;6.30;99.90;;;;;;4951562;29;19911;-88
2022/03/18 07:12:38;;;;;;;;;;;6.40;99.90;;;;;;4936909;29;20013;-88
2022/03/18 07:15:04;;;;;;;;;;;6.40;99.90;;;;;;4937467;29;19998;-91
2022/03/18 07:20:14;;;;;;;;;;;6.50;99.90;;;;;;4937413;29;19917;-89
2022/03/18 07:22:40;;;;;;;;;;;6.50;99.90;;;;;;4937073;29;19911;-88
2022/03/18 07:25:06;;;;;;;;;;;6.50;99.90;;;;;;4936777;29;20130;-88
2022/03/18 07:27:31;;;;;;;;;;;6.60;99.90;;;;;;4936522;29;20590;-89
2022/03/18 07:29:58;;;;;;;;;;;6.60;99.90;;;;;;4936431;29;20299;-88
2022/03/18 07:32:24;;;;;;;;;;;6.70;99.90;;;;;;4939896;29;19954;-89
2022/03/18 07:34:49;;;;;;;;;;;6.70;99.90;;;;;;4934484;29;19938;-88
2022/03/18 07:37:15;;;;;;;;;;;6.80;99.90;;;;;;4928853;29;19963;-88
2022/03/18 07:39:40;;;;;;;;;;;6.80;99.90;;;;;;4913774;29;19934;-89
2022/03/18 07:42:06;;;;;;;;;;;6.90;99.90;;;;;;4935542;29;19965;-88
2022/03/18 07:44:31;;;;;;;;;;;6.90;99.90;;;;;;4936951;29;20006;-89
2022/03/18 07:46:57;;;;;;;;;;;6.90;99.90;;;;;;4951278;29;20299;-80
2022/03/18 07:49:22;;;;;;;;;;;6.90;99.90;;;;;;4936175;29;19911;-81
2022/03/18 07:51:48;;;;;;;;;;;7.00;99.90;;;;;;4937545;29;19958;-80
2022/03/18 07:54:14;;;;;;;;;;;7.00;99.90;;;;;;4936058;29;19959;-81
2022/03/18 07:56:40;;;;;;;;;;;7.00;99.90;;;;;;4935497;29;19943;-80
2022/03/18 07:59:05;;;;;;;;;;;7.10;99.90;;;;;;4935378;29;19915;-85
2022/03/18 08:01:31;;;;;;;;;;;7.20;99.90;;;;;;4933184;29;19966;-86
2022/03/18 08:03:57;;;;;;;;;;;7.30;99.90;;;;;;4935269;29;19915;-85
2022/03/18 08:06:22;;;;;;;;;;;7.30;99.90;;;;;;4935635;29;19911;-85
2022/03/18 08:08:48;;;;;;;;;;;7.30;99.90;;;;;;4936138;29;19911;-86
2022/03/18 08:11:14;;;;;;;;;;;7.40;99.90;;;;;;4935403;29;20303;-85
2022/03/18 08:13:39;;;;;;;;;;;7.40;99.90;;;;;;4935193;29;19915;-84
2022/03/18 08:16:05;;;;;;;;;;;7.40;99.90;;;;;;4949632;29;20154;-85
2022/03/18 08:18:31;;;;;;;;;;;7.60;99.90;;;;;;4935067;29;19911;-84
2022/03/18 08:20:56;;;;;;;;;;;7.60;99.90;;;;;;4933988;29;19911;-85
2022/03/18 08:23:23;;;;;;;;;;;7.60;99.90;;;;;;4935191;29;20213;-85
2022/03/18 08:25:48;;;;;;;;;;;7.70;99.90;;;;;;4935648;29;19917;-84
2022/03/18 08:28:14;;;;;;;;;;;7.70;99.90;;;;;;4949512;29;20017;-85
2022/03/18 08:30:40;;;;;;;;;;;7.80;99.90;;;;;;4934957;29;20001;-85
2022/03/18 08:33:05;;;;;;;;;;;7.80;99.90;;;;;;4935444;29;19914;-84
2022/03/18 08:35:31;;;;;;;;;;;7.90;99.90;;;;;;4935371;29;19974;-85
2022/03/18 08:37:57;;;;;;;;;;;7.90;99.90;;;;;;4934924;29;20394;-85
2022/03/18 08:40:27;;;;;;;;;;;8.00;99.90;;;;;;4934642;29;20005;-86
2022/03/18 08:42:53;;;;;;;;;;;8.00;99.90;;;;;;4935031;29;19911;-86
2022/03/18 08:45:19;;;;;;;;;;;8.10;99.90;;;;;;4934506;29;19911;-86
2022/03/18 08:47:44;;;;;;;;;;;8.10;99.90;;;;;;4934917;29;20366;-86
2022/03/18 08:50:10;;;;;;;;;;;8.20;99.90;;;;;;4934693;29;19911;-85
2022/03/18 08:52:36;;;;;;;;;;;8.30;99.90;;;;;;4934783;29;19911;-85
2022/03/18 08:55:01;;;;;;;;;;;8.40;99.90;;;;;;4949185;29;19911;-85
2022/03/18 08:57:33;;;;;;;;;;;8.50;99.90;;;;;;4935334;29;19910;-85
2022/03/18 08:59:59;;;;;;;;;;;8.60;99.90;;;;;;4934725;29;19917;-85
2022/03/18 09:02:24;;;;;;;;;;;8.70;99.90;;;;;;4935436;29;19914;-85
2022/03/18 09:04:50;;;;;;;;;;;8.80;99.90;;;;;;4934890;29;20360;-85
2022/03/18 09:07:19;;;;;;;;;;;8.90;99.90;;;;;;4934500;29;19925;-85
2022/03/18 09:09:45;;;;;;;;;;;9.10;99.90;;;;;;4946754;29;19918;-85
2022/03/18 09:12:10;;;;;;;;;;;9.20;99.90;;;;;;4933820;29;19911;-85
2022/03/18 09:14:36;;;;;;;;;;;9.30;99.90;;;;;;4948274;29;19938;-85
2022/03/18 09:17:01;;;;;;;;;;;9.40;99.90;;;;;;4934223;29;19910;-85
2022/03/18 09:19:27;;;;;;;;;;;9.60;99.90;;;;;;4933934;29;20057;-86
2022/03/18 09:21:52;;;;;;;;;;;9.70;99.90;;;;;;4933460;29;19911;-85
2022/03/18 09:24:18;;;;;;;;;;;9.80;99.90;;;;;;4932496;29;19937;-85
2022/03/18 09:26:44;;;;;;;;;;;9.90;99.90;;;;;;4933924;29;19919;-84
2022/03/18 09:29:10;;;;;;;;;;;9.90;99.90;;;;;;4949123;29;19951;-84
2022/03/18 09:31:36;;;;;;;;;;;10.00;99.90;;;;;;4934356;29;20166;-88
2022/03/18 09:34:01;;;;;;;;;;;10.10;99.90;;;;;;4932813;29;20359;-85
2022/03/18 09:36:27;;;;;;;;;;;10.10;99.90;;;;;;4932145;29;20017;-85
2022/03/18 09:38:54;;;;;;;;;;;10.10;99.90;;;;;;4933740;29;20399;-85
2022/03/18 09:41:20;;;;;;;;;;;10.20;99.90;;;;;;4933440;29;19997;-79
2022/03/18 09:43:45;;;;;;;;;;;10.40;99.90;;;;;;4932628;29;20373;-79
2022/03/18 09:46:12;;;;;;;;;;;10.40;99.90;;;;;;4932928;29;19950;-80
2022/03/18 09:48:38;;;;;;;;;;;10.40;99.90;;;;;;4945421;29;19923;-85
2022/03/18 09:51:03;;;;;;;;;;;10.50;99.90;;;;;;4932168;29;20360;-84
2022/03/18 09:53:29;;;;;;;;;;;10.50;99.90;;;;;;4934993;29;20003;-84
2022/03/18 09:55:54;;;;;;;;;;;10.40;99.90;;;;;;4933314;29;19911;-85
2022/03/18 09:58:21;;;;;;;;;;;10.40;99.90;;;;;;4934303;29;20414;-85
2022/03/18 10:00:47;;;;;;;;;;;10.50;99.90;;;;;;4933262;29;19933;-85
2022/03/18 10:03:16;;;;;;;;;;;10.40;99.90;;;;;;4933082;29;20442;-85
2022/03/18 10:06:03;;;;;;;;;;;10.50;99.90;;;;;;4948805;29;19918;-85
2022/03/18 10:08:35;;;;;;;;;;;10.60;99.90;;;;;;4914463;29;19951;-84
2022/03/18 10:11:12;;;;;;;;;;;10.70;99.90;;;;;;4914660;29;19959;-85
2022/03/18 10:13:57;;;;;;;;;;;10.80;99.90;;;;;;4928598;29;19938;-85
2022/03/18 10:16:33;;;;;;;;;;;11.00;99.90;;;;;;4932330;29;19942;-85
2022/03/18 10:18:59;;;;;;;;;;;11.10;99.90;;;;;;4945866;29;19942;-85
2022/03/18 10:21:25;;;;;;;;;;;11.10;99.90;;;;;;4932604;29;19970;-85
2022/03/18 10:24:02;;;;;;;;;;;11.20;99.90;;;;;;4931493;29;19911;-84
2022/03/18 10:26:28;;;;;;;;;;;11.30;99.90;;;;;;4933408;29;19938;-85
2022/03/18 10:29:00;;;;;;;;;;;11.50;99.90;;;;;;4933973;29;19911;-85
2022/03/18 10:31:25;;;;;;;;;;;11.60;99.90;;;;;;4933354;29;19914;-85
2022/03/18 10:39:37;;;;;;;;;;;11.70;99.90;;;;;;4933127;29;19926;-85
2022/03/18 10:42:04;;;;;;;;;;;11.60;99.90;;;;;;4931761;29;19958;-85
2022/03/18 10:44:41;;;;;;;;;;;11.70;99.90;;;;;;4933290;29;19910;-79
2022/03/18 10:47:07;;;;;;;;;;;11.70;99.90;;;;;;4933939;29;19919;-79
2022/03/18 10:49:33;;;;;;;;;;;11.60;99.90;;;;;;4934846;29;19918;-79
2022/03/18 10:52:08;;;;;;;;;;;11.70;99.90;;;;;;4935031;29;19935;-79
2022/03/18 10:54:34;;;;;;;;;;;11.70;99.90;;;;;;4932794;29;20390;-81
2022/03/18 10:57:00;;;;;;;;;;;11.80;99.90;;;;;;4932622;29;19915;-85
2022/03/18 10:59:27;;;;;;;;;;;11.80;99.90;;;;;;4932467;29;19918;-84
2022/03/18 11:01:54;;;;;;;;;;;12.00;99.90;;;;;;4933159;29;19917;-85
2022/03/18 11:04:21;;;;;;;;;;;12.00;99.90;;;;;;4947636;29;20387;-85
2022/03/18 11:07:29;;;;;;;;;;;12.10;99.90;;;;;;4933397;29;19970;-84
2022/03/18 11:12:24;;;;;;;;;;;12.40;99.90;;;;;;4932566;29;19949;-86
2022/03/18 11:14:53;;;;;;;;;;;12.40;99.90;;;;;;4947202;29;19950;-85
2022/03/18 11:17:20;;;;;;;;;;;12.50;99.90;;;;;;4932699;29;19950;-85
2022/03/18 11:19:46;;;;;;;;;;;12.60;99.90;;;;;;4932757;29;19914;-84
2022/03/18 11:22:14;;;;;;;;;;;12.70;99.90;;;;;;4932639;29;20001;-84
2022/03/18 11:24:39;;;;;;;;;;;12.80;99.90;;;;;;4931290;29;19914;-85
2022/03/18 11:27:05;;;;;;;;;;;12.90;99.90;;;;;;4930930;29;19915;-85
2022/03/18 11:29:33;;;;;;;;;;;12.90;99.90;;;;;;4931145;29;19914;-85
2022/03/18 11:32:14;;;;;;;;;;;12.90;99.90;;;;;;4932497;29;20395;-85
2022/03/18 11:34:50;;;;;;;;;;;13.20;99.90;;;;;;4947588;28;20299;-84
2022/03/18 11:37:17;;;;;;;;;;;13.50;99.90;;;;;;4935929;29;20496;-85
2022/03/18 11:39:42;;;;;;;;;;;13.50;99.90;;;;;;4936145;29;19917;-85
2022/03/18 11:42:09;;;;;;;;;;;13.70;99.90;;;;;;4936121;29;19911;-86
2022/03/18 11:44:41;;;;;;;;;;;13.90;99.90;;;;;;4935863;29;20411;-86
2022/03/18 11:47:18;;;;;;;;;;;14.00;99.90;;;;;;4935394;29;19923;-85
2022/03/18 11:49:44;;;;;;;;;;;14.10;99.90;;;;;;4935468;29;20360;-84
2022/03/18 11:52:09;;;;;;;;;;;14.20;99.90;;;;;;4935393;29;19938;-85
2022/03/18 11:54:48;;;;;;;;;;;14.20;99.90;;;;;;4935813;29;19937;-84
2022/03/18 11:57:33;;;;;;;;;;;14.40;99.90;;;;;;4935780;29;19911;-84
2022/03/18 12:00:00;;;;;;;;;;;14.30;99.90;;;;;;4935512;29;19911;-83
2022/03/18 12:02:35;;;;;;;;;;;14.40;99.90;;;;;;4935775;29;20371;-85
2022/03/18 12:05:01;;;;;;;;;;;14.60;99.90;;;;;;4935455;29;19958;-85
2022/03/18 12:07:29;;;;;;;;;;;14.70;99.90;;;;;;4935308;29;19962;-85
2022/03/18 12:09:55;;;;;;;;;;;14.60;99.90;;;;;;4935146;29;19914;-85
2022/03/18 12:12:20;;;;;;;;;;;14.60;99.90;;;;;;4935334;29;20002;-85
2022/03/18 12:14:46;;;;;;;;;;;14.90;99.90;;;;;;4935634;29;20347;-85
2022/03/18 12:17:12;;;;;;;;;;;15.10;99.90;;;;;;4935449;29;20014;-85
2022/03/18 12:19:37;;;;;;;;;;;15.20;99.90;;;;;;4935303;29;19942;-83
2022/03/18 12:22:03;;;;;;;;;;;15.40;99.90;;;;;;4950012;29;19933;-86
2022/03/18 12:24:32;;;;;;;;;;;15.60;99.90;;;;;;4935024;29;19933;-84
2022/03/18 12:27:00;;;;;;;;;;;15.50;99.90;;;;;;4934869;29;19966;-85
2022/03/18 12:29:29;;;;;;;;;;;15.40;99.90;;;;;;4934891;29;20068;-85
2022/03/18 12:32:02;;;;;;;;;;;15.50;99.90;;;;;;4935158;29;20406;-84
2022/03/18 12:34:27;;;;;;;;;;;15.60;99.90;;;;;;4949727;29;20274;-84
2022/03/18 12:36:53;;;;;;;;;;;15.80;99.90;;;;;;4935037;29;20010;-85
2022/03/18 12:39:18;;;;;;;;;;;15.80;99.90;;;;;;4935033;29;19918;-85
2022/03/18 12:41:45;;;;;;;;;;;16.00;99.90;;;;;;4935249;29;19966;-84
2022/03/18 12:44:10;;;;;;;;;;;16.20;99.90;;;;;;4949174;29;19917;-85
2022/03/18 12:46:37;;;;;;;;;;;16.30;99.90;;;;;;4932436;29;19923;-85
2022/03/18 12:49:04;;;;;;;;;;;16.30;99.90;;;;;;4949437;29;19950;-85
2022/03/18 12:51:30;;;;;;;;;;;16.60;99.90;;;;;;4934502;29;19962;-84
2022/03/18 12:53:56;;;;;;;;;;;16.60;99.90;;;;;;4935100;29;20390;-85
2022/03/18 12:56:24;;;;;;;;;;;16.50;99.90;;;;;;4934955;29;20372;-84
2022/03/18 12:58:51;;;;;;;;;;;16.40;99.90;;;;;;4934505;29;20006;-85
2022/03/18 13:01:17;;;;;;;;;;;16.40;99.90;;;;;;4933943;29;20335;-85
2022/03/18 13:03:49;;;;;;;;;;;16.40;99.90;;;;;;4935276;29;19966;-85
2022/03/18 13:06:19;;;;;;;;;;;16.40;99.90;;;;;;4934279;29;20052;-84
2022/03/18 13:09:13;;;;;;;;;;;16.20;99.90;;;;;;4934619;29;19918;-84
2022/03/18 13:11:41;;;;;;;;;;;16.10;99.90;;;;;;4931148;29;20464;-84
2022/03/18 13:14:07;;;;;;;;;;;16.20;99.90;;;;;;4933639;29;19911;-84
2022/03/18 13:16:37;;;;;;;;;;;16.30;99.90;;;;;;4939686;29;19971;-84
2022/03/18 13:19:03;;;;;;;;;;;16.40;99.90;;;;;;4938562;29;19911;-84
2022/03/18 13:21:37;;;;;;;;;;;16.30;99.90;;;;;;4939760;29;19914;-85
2022/03/18 13:24:03;;;;;;;;;;;16.40;99.90;;;;;;4931520;29;19919;-85
2022/03/18 13:26:29;;;;;;;;;;;16.60;99.90;;;;;;4933810;29;20387;-85
2022/03/18 13:28:55;;;;;;;;;;;16.60;99.90;;;;;;4948242;29;19915;-82
2022/03/18 13:34:04;;;;;;;;;;;16.70;99.90;;;;;;4934289;29;20166;-82
2022/03/18 13:36:39;;;;;;;;;;;16.80;99.90;;;;;;4933686;29;20167;-82
2022/03/18 13:39:06;;;;;;;;;;;16.80;99.90;;;;;;4933571;29;19921;-82
2022/03/18 13:42:01;;;;;;;;;;;16.80;99.90;;;;;;4933565;29;19918;-82
2022/03/18 13:44:42;;;;;;;;;;;16.70;99.90;;;;;;4916488;29;19911;-82
2022/03/18 13:47:08;;;;;;;;;;;16.80;99.90;;;;;;4933450;29;19922;-82
2022/03/18 13:49:34;;;;;;;;;;;17.00;99.90;;;;;;4933514;29;19970;-82
2022/03/18 13:52:03;;;;;;;;;;;17.00;99.90;;;;;;4933304;29;19911;-82
2022/03/18 13:54:39;;;;;;;;;;;17.10;99.90;;;;;;4933296;29;19911;-82
2022/03/18 13:57:05;;;;;;;;;;;17.10;99.90;;;;;;4933270;29;20009;-82
2022/03/18 13:59:31;;;;;;;;;;;17.40;99.90;;;;;;4933229;29;20014;-82
2022/03/18 14:02:06;;;;;;;;;;;17.50;99.90;;;;;;4934041;29;19969;-82
2022/03/18 14:04:41;;;;;;;;;;;17.30;99.90;;;;;;4933200;29;19934;-82
2022/03/18 14:07:08;;;;;;;;;;;17.00;99.90;;;;;;4948102;29;20053;-82
2022/03/18 14:09:33;;;;;;;;;;;16.80;99.90;;;;;;4948082;29;19910;-82
2022/03/18 14:12:12;;;;;;;;;;;16.90;99.90;;;;;;4933170;29;19918;-82
2022/03/18 14:14:39;;;;;;;;;;;16.90;99.90;;;;;;4933711;29;19921;-81
2022/03/18 14:17:07;;;;;;;;;;;17.00;99.90;;;;;;4933981;29;20051;-81
2022/03/18 14:19:44;;;;;;;;;;;17.20;99.90;;;;;;4935187;29;20186;-81
2022/03/18 14:22:09;;;;;;;;;;;17.20;99.90;;;;;;4931839;29;19918;-81
2022/03/18 14:24:35;;;;;;;;;;;17.20;99.90;;;;;;4932936;29;19911;-81
2022/03/18 14:27:00;;;;;;;;;;;17.30;99.90;;;;;;4934273;29;20005;-79
2022/03/18 14:29:35;;;;;;;;;;;17.50;99.90;;;;;;4933894;29;19918;-80
2022/03/18 14:32:01;;;;;;;;;;;17.60;99.90;;;;;;4933220;29;19911;-80
2022/03/18 14:34:28;;;;;;;;;;;17.60;99.90;;;;;;4932825;29;19911;-80
2022/03/18 14:36:54;;;;;;;;;;;17.50;99.90;;;;;;4932913;29;20287;-80
2022/03/18 14:39:19;;;;;;;;;;;17.40;99.90;;;;;;4933043;29;19911;-80
2022/03/18 14:41:45;;;;;;;;;;;17.20;99.90;;;;;;4933016;29;20411;-80
2022/03/18 14:44:11;;;;;;;;;;;17.20;99.90;;;;;;4932681;29;19911;-80
2022/03/18 14:46:37;;;;;;;;;;;17.50;99.90;;;;;;4933049;29;20422;-80
2022/03/18 14:49:02;;;;;;;;;;;17.40;99.90;;;;;;4932577;29;19923;-80
2022/03/18 14:51:30;;;;;;;;;;;17.30;99.90;;;;;;4932046;29;19973;-80
2022/03/18 14:53:55;;;;;;;;;;;17.30;99.90;;;;;;4932428;29;19919;-80
2022/03/18 14:56:26;;;;;;;;;;;17.30;99.90;;;;;;4933258;29;19917;-80